AirNav   ProFlight Series 2 Aviation Headset
 
 913 users online  

38WV River's Edge Farm Airport
Capon Bridge, West Virginia, USA

GOING TO CAPON BRIDGE?


FAA INFORMATION EFFECTIVE 16 JULY 2020

Location

FAA Identifier: 38WV
Lat/Long: 39-19-31.0000N 078-25-32.0000W
39-19.516667N 078-25.533333W
39.3252778,-78.4255556
(estimated)
Elevation: 810 ft. / 247 m (estimated)
From city: 2 miles NE of CAPON BRIDGE, WV
Time zone: UTC -4 (UTC -5 during Standard Time)
Zip code: 26817

Airport Operations

Airport use: Private use. Permission required prior to landing
Activation date: 08/2005
Control tower: no
ARTCC: WASHINGTON CENTER
FSS: ELKINS FLIGHT SERVICE STATION [703-724-4288]
Attendance: UNATNDD
Wind indicator: yes
Segmented circle: no

Airport Communications

WX AWOS-3 at OKV (17 nm SE): 124.85 (540-662-6970)

Nearby radio navigation aids

VOR radial/distance  VOR name  Freq  Var
ESLr083/26.9KESSEL VOR/DME110.8006W
MRBr269/27.0MARTINSBURG VORTAC112.1007W
LDNr346/30.1LINDEN VORTAC114.3006W
HGRr237/(34.6)HAGERSTOWN VOR109.8007W

 
NDB name  Hdg/Dist  Freq  Var  ID
CAVERNS012/37.624509WLUA .-.. ..- .-

Airport Services

Runway Information

Runway 6/24

Dimensions: 1800 x 50 ft. / 549 x 15 m
Surface: turf
RUNWAY 6  RUNWAY 24
Traffic pattern: leftleft
Displaced threshold: 1000 ft.no
Obstructions: 50 ft. trees50 ft. trees

Airport Ownership and Management from official FAA records

Ownership: Privately-owned
Owner: LEONARD R. MCMASTER
27 FAIRFIELD LANE
CAPON BRIDGE, WV 23185
Phone (304) 856-1118
Manager: LEONARD R. MCMASTER
27 FAIRFIELD LANE
CAPON BRIDGE, WV 26711
Phone 304-856-1118

Airport Operational Statistics

Aircraft based on the field: 1
Single engine airplanes: 1
    

Additional Remarks

APPROACH TO RY 24 IS ACROSS CACAPON RIVER.
LAND RWY 24 AND TAKEOFF RWY 06.
FOR CD CTC WASHINGTON ARTCC AT 703-771-3587.
(PAY PHONE) PAY PHONE AVAILABLE.

Instrument Procedures

There are no published instrument procedures at 38WV.

Some nearby airports with instrument procedures:

KOKV - Winchester Regional Airport (17 nm SE)
KMRB - Eastern WV Regional Airport/Shepherd Field (21 nm E)
KCBE - Greater Cumberland Regional Airport (23 nm NW)
W35 - Potomac Airpark (25 nm NE)
KFRR - Front Royal-Warren County Airport (26 nm S)
 
Loc | Ops | Rwys | IFR | FBO | Links
Com | Nav | Svcs | Stats | Notes
Area around 38WV (River's  Edge Farm Airport)
 
Road maps at: MapQuest Bing Google
 
Aerial photo
WARNING: Photo may not be current or correct
Aerial photo of 38WV (River's  Edge Farm Airport)
Photo by Malcolm H. Teas, Tangozulu Photography 703-727-4320
Photo taken 08-Oct-2006
facing runway 24

Do you have a better or more recent aerial photo of River's Edge Farm Airport that you would like to share? If so, please send us your photo.

 
Sectional chart

 
Airport distance calculator
Flying to River's Edge Farm Airport? Find the distance to fly.

From to 38WV

Sunrise and sunset
Times for 06-Aug-2020
 Local
(UTC-4)
 Zulu
(UTC)
Morning civil twilight05:5109:51
Sunrise06:2010:20
Sunset20:1900:19
Evening civil twilight20:4800:48

Current date and time
Zulu (UTC)  07-Aug-2020 02:55:13
Local (UTC-4)  06-Aug-2020 22:55:13
 
METAR
KOKV 
17nm SE 
070235Z AUTO 00000KT 10SM BKN018 BKN030 21/20 A3008 RMK AO2 LTG DSNT E
KMRB 
21nm E 
070202Z 00000KT 6SM BR FEW022 BKN033 BKN048 22/21 A3008 RMK AO2 LTG DSNT E AND SE RAE0155 P0000 T02170211
KCBE 
24nm NW 
070235Z AUTO 00000KT 10SM OVC033 22/21 A3014 RMK AO2 T02200207
KFRR 
26nm S 
070235Z AUTO 00000KT 10SM SCT022 21/21 A3008 RMK AO1
TAF
KMRB 
21nm E 
070141Z 0702/0724 17004KT P6SM -SHRA VCTS BKN025CB OVC050 FM070600 VRB03KT 3SM BR OVC003 FM070900 00000KT 1SM BR BKN003 TEMPO 0709/0711 1/4SM FG FM071330 VRB03KT P6SM BKN015 FM071900 VRB03KT P6SM -SHRA BKN045
NOTAMs
Click for the latest NOTAMs
NOTAMs are issued by the DoD/FAA and will open in a separate window not controlled by AirNav.

 

 
 

Would you like to see your business listed on this page?

 If your business provides an interesting product or service to pilots, flight crews, aircraft, or users of the River's Edge Farm Airport, you should consider listing it here.  To start the listing process, click on the button below
 
Add a business
 

Other Pages about River's Edge Farm Airport

Update a link
 
Copyright © AirNav, LLC. All rights reserved. Privacy Policy  Contact